sensor_id;sensor_type;location;lat;lon;timestamp;pressure;altitude;pressure_sealevel;temperature;humidity
12203;BME280;6164;42.178;24.622;2023-03-04T00:00:39;99818.47;;;4.60;100.00
12203;BME280;6164;42.178;24.622;2023-03-04T00:03:09;99819.56;;;4.58;100.00
12203;BME280;6164;42.178;24.622;2023-03-04T00:05:38;99818.13;;;4.54;100.00
12203;BME280;6164;42.178;24.622;2023-03-04T00:08:04;99829.09;;;4.48;100.00
12203;BME280;6164;42.178;24.622;2023-03-04T00:10:31;99827.63;;;4.55;100.00
12203;BME280;6164;42.178;24.622;2023-03-04T00:12:57;99823.34;;;4.54;100.00
12203;BME280;6164;42.178;24.622;2023-03-04T00:15:24;99824.53;;;4.61;100.00
12203;BME280;6164;42.178;24.622;2023-03-04T00:17:52;99810.34;;;4.63;100.00
12203;BME280;6164;42.178;24.622;2023-03-04T00:20:18;99811.59;;;4.59;100.00
12203;BME280;6164;42.178;24.622;2023-03-04T00:22:45;99809.22;;;4.56;100.00
12203;BME280;6164;42.178;24.622;2023-03-04T00:25:11;99807.03;;;4.61;100.00
12203;BME280;6164;42.178;24.622;2023-03-04T00:27:38;99814.66;;;4.64;100.00
12203;BME280;6164;42.178;24.622;2023-03-04T00:30:05;99819.88;;;4.64;100.00
12203;BME280;6164;42.178;24.622;2023-03-04T00:32:31;99814.78;;;4.63;100.00
12203;BME280;6164;42.178;24.622;2023-03-04T00:34:59;99816.22;;;4.56;100.00
12203;BME280;6164;42.178;24.622;2023-03-04T00:37:26;99803.94;;;4.36;100.00
12203;BME280;6164;42.178;24.622;2023-03-04T00:39:52;99804.06;;;4.34;100.00
12203;BME280;6164;42.178;24.622;2023-03-04T00:42:19;99798.19;;;4.42;100.00
12203;BME280;6164;42.178;24.622;2023-03-04T00:44:45;99806.63;;;4.45;100.00
12203;BME280;6164;42.178;24.622;2023-03-04T00:47:13;99806.63;;;4.45;100.00
12203;BME280;6164;42.178;24.622;2023-03-04T00:49:40;99807.00;;;4.41;100.00
12203;BME280;6164;42.178;24.622;2023-03-04T00:52:08;99806.16;;;4.40;100.00
12203;BME280;6164;42.178;24.622;2023-03-04T00:54:34;99807.84;;;4.41;100.00
12203;BME280;6164;42.178;24.622;2023-03-04T00:57:01;99806.28;;;4.39;100.00
12203;BME280;6164;42.178;24.622;2023-03-04T00:59:27;99805.03;;;4.33;100.00
12203;BME280;6164;42.178;24.622;2023-03-04T01:01:54;99799.91;;;4.32;100.00
12203;BME280;6164;42.178;24.622;2023-03-04T01:04:20;99808.59;;;4.32;100.00
12203;BME280;6164;42.178;24.622;2023-03-04T01:06:46;99801.44;;;4.34;100.00
12203;BME280;6164;42.178;24.622;2023-03-04T01:09:14;99794.44;;;4.35;100.00
12203;BME280;6164;42.178;24.622;2023-03-04T01:11:41;99789.81;;;4.38;100.00
12203;BME280;6164;42.178;24.622;2023-03-04T01:14:07;99791.44;;;4.39;100.00
12203;BME280;6164;42.178;24.622;2023-03-04T01:16:34;99793.22;;;4.39;100.00
12203;BME280;6164;42.178;24.622;2023-03-04T01:19:00;99785.50;;;4.37;100.00
12203;BME280;6164;42.178;24.622;2023-03-04T01:21:27;99785.50;;;4.37;100.00
12203;BME280;6164;42.178;24.622;2023-03-04T01:23:53;99778.63;;;4.36;100.00
12203;BME280;6164;42.178;24.622;2023-03-04T01:26:21;99781.38;;;4.35;100.00
12203;BME280;6164;42.178;24.622;2023-03-04T01:28:48;99778.50;;;4.38;100.00
12203;BME280;6164;42.178;24.622;2023-03-04T01:31:14;99782.66;;;4.40;100.00
12203;BME280;6164;42.178;24.622;2023-03-04T01:33:41;99779.09;;;4.41;100.00
12203;BME280;6164;42.178;24.622;2023-03-04T01:36:07;99779.69;;;4.45;100.00
12203;BME280;6164;42.178;24.622;2023-03-04T01:38:34;99784.41;;;4.51;100.00
12203;BME280;6164;42.178;24.622;2023-03-04T01:41:00;99776.31;;;4.54;100.00
12203;BME280;6164;42.178;24.622;2023-03-04T01:43:28;99771.66;;;4.57;100.00
12203;BME280;6164;42.178;24.622;2023-03-04T01:45:56;99773.16;;;4.60;100.00
12203;BME280;6164;42.178;24.622;2023-03-04T01:48:24;99763.69;;;4.59;100.00
12203;BME280;6164;42.178;24.622;2023-03-04T01:50:51;99772.50;;;4.58;100.00
12203;BME280;6164;42.178;24.622;2023-03-04T01:53:19;99775.78;;;4.60;100.00
12203;BME280;6164;42.178;24.622;2023-03-04T01:55:46;99769.16;;;4.56;100.00
12203;BME280;6164;42.178;24.622;2023-03-04T01:58:13;99760.34;;;4.57;100.00
12203;BME280;6164;42.178;24.622;2023-03-04T02:00:41;99767.94;;;4.60;100.00
12203;BME280;6164;42.178;24.622;2023-03-04T02:03:08;99764.66;;;4.58;100.00
12203;BME280;6164;42.178;24.622;2023-03-04T02:05:36;99772.50;;;4.58;100.00
12203;BME280;6164;42.178;24.622;2023-03-04T02:08:03;99775.78;;;4.60;100.00
12203;BME280;6164;42.178;24.622;2023-03-04T02:10:30;99772.38;;;4.59;100.00
12203;BME280;6164;42.178;24.622;2023-03-04T02:12:57;99772.50;;;4.58;100.00
12203;BME280;6164;42.178;24.622;2023-03-04T02:15:24;99772.97;;;4.52;100.00
12203;BME280;6164;42.178;24.622;2023-03-04T02:17:52;99775.34;;;4.55;100.00
12203;BME280;6164;42.178;24.622;2023-03-04T02:20:22;99759.16;;;4.61;100.00
12203;BME280;6164;42.178;24.622;2023-03-04T02:22:53;99765.25;;;4.50;100.00
12203;BME280;6164;42.178;24.622;2023-03-04T02:25:23;99764.34;;;4.40;100.00
12203;BME280;6164;42.178;24.622;2023-03-04T02:27:54;99764.47;;;4.39;100.00
12203;BME280;6164;42.178;24.622;2023-03-04T02:30:22;99762.97;;;4.36;100.00
12203;BME280;6164;42.178;24.622;2023-03-04T02:32:49;99762.00;;;4.37;100.00
12203;BME280;6164;42.178;24.622;2023-03-04T02:35:16;99761.78;;;4.29;100.00
12203;BME280;6164;42.178;24.622;2023-03-04T02:37:43;99757.75;;;4.25;100.00
12203;BME280;6164;42.178;24.622;2023-03-04T02:40:11;99755.41;;;4.22;100.00
12203;BME280;6164;42.178;24.622;2023-03-04T02:42:39;99756.94;;;4.25;100.00
12203;BME280;6164;42.178;24.622;2023-03-04T02:47:50;99748.91;;;4.05;100.00
12203;BME280;6164;42.178;24.622;2023-03-04T02:50:20;99749.16;;;4.02;100.00
12203;BME280;6164;42.178;24.622;2023-03-04T02:52:47;99750.31;;;3.78;100.00
12203;BME280;6164;42.178;24.622;2023-03-04T02:55:14;99741.97;;;3.84;100.00
12203;BME280;6164;42.178;24.622;2023-03-04T02:57:40;99753.28;;;3.73;100.00
12203;BME280;6164;42.178;24.622;2023-03-04T03:00:08;99749.63;;;3.65;100.00
12203;BME280;6164;42.178;24.622;2023-03-04T03:02:35;99751.88;;;3.58;100.00
12203;BME280;6164;42.178;24.622;2023-03-04T03:05:03;99753.91;;;3.55;100.00
12203;BME280;6164;42.178;24.622;2023-03-04T03:07:29;99752.69;;;3.48;100.00
12203;BME280;6164;42.178;24.622;2023-03-04T03:09:56;99751.53;;;3.41;100.00
12203;BME280;6164;42.178;24.622;2023-03-04T03:12:22;99751.91;;;3.47;100.00
12203;BME280;6164;42.178;24.622;2023-03-04T03:14:49;99763.03;;;3.49;100.00
12203;BME280;6164;42.178;24.622;2023-03-04T03:17:15;99757.94;;;3.48;100.00
12203;BME280;6164;42.178;24.622;2023-03-04T03:19:42;99766.94;;;3.55;100.00
12203;BME280;6164;42.178;24.622;2023-03-04T03:22:10;99763.28;;;3.57;100.00
12203;BME280;6164;42.178;24.622;2023-03-04T03:24:36;99763.50;;;3.54;100.00
12203;BME280;6164;42.178;24.622;2023-03-04T03:27:03;99765.16;;;3.55;100.00
12203;BME280;6164;42.178;24.622;2023-03-04T03:29:29;99766.91;;;3.66;100.00
12203;BME280;6164;42.178;24.622;2023-03-04T03:31:55;99773.34;;;3.73;100.00
12203;BME280;6164;42.178;24.622;2023-03-04T03:34:22;99773.94;;;3.76;100.00
12203;BME280;6164;42.178;24.622;2023-03-04T03:36:48;99770.13;;;3.80;100.00
12203;BME280;6164;42.178;24.622;2023-03-04T03:39:16;99765.47;;;3.84;100.00
12203;BME280;6164;42.178;24.622;2023-03-04T03:41:43;99764.91;;;3.80;100.00
12203;BME280;6164;42.178;24.622;2023-03-04T03:44:09;99763.81;;;3.83;100.00
12203;BME280;6164;42.178;24.622;2023-03-04T03:46:36;99763.44;;;3.87;100.00
12203;BME280;6164;42.178;24.622;2023-03-04T03:49:02;99758.94;;;3.89;100.00
12203;BME280;6164;42.178;24.622;2023-03-04T03:51:29;99768.22;;;3.93;100.00
12203;BME280;6164;42.178;24.622;2023-03-04T03:53:55;99759.78;;;3.90;100.00
12203;BME280;6164;42.178;24.622;2023-03-04T03:56:23;99760.84;;;3.87;100.00
12203;BME280;6164;42.178;24.622;2023-03-04T03:58:49;99758.22;;;3.87;100.00
12203;BME280;6164;42.178;24.622;2023-03-04T04:01:16;99757.28;;;3.88;100.00
12203;BME280;6164;42.178;24.622;2023-03-04T04:03:42;99762.50;;;3.88;100.00
12203;BME280;6164;42.178;24.622;2023-03-04T04:06:09;99761.56;;;3.89;100.00
12203;BME280;6164;42.178;24.622;2023-03-04T04:08:35;99753.47;;;3.92;100.00
12203;BME280;6164;42.178;24.622;2023-03-04T04:11:02;99752.53;;;3.93;100.00
12203;BME280;6164;42.178;24.622;2023-03-04T04:13:30;99753.47;;;3.92;100.00
12203;BME280;6164;42.178;24.622;2023-03-04T04:15:56;99761.88;;;3.96;100.00
12203;BME280;6164;42.178;24.622;2023-03-04T04:18:23;99759.56;;;3.82;100.00
12203;BME280;6164;42.178;24.622;2023-03-04T04:20:50;99770.34;;;3.88;100.00
12203;BME280;6164;42.178;24.622;2023-03-04T04:23:17;99763.78;;;3.94;100.00
12203;BME280;6164;42.178;24.622;2023-03-04T04:25:43;99772.59;;;3.93;100.00
12203;BME280;6164;42.178;24.622;2023-03-04T04:28:10;99770.69;;;3.95;100.00
12203;BME280;6164;42.178;24.622;2023-03-04T04:30:38;99779.00;;;4.00;100.00
12203;BME280;6164;42.178;24.622;2023-03-04T04:33:04;99779.59;;;4.03;100.00
12203;BME280;6164;42.178;24.622;2023-03-04T04:35:31;99780.97;;;4.07;100.00
12203;BME280;6164;42.178;24.622;2023-03-04T04:37:58;99786.22;;;4.07;100.00
12203;BME280;6164;42.178;24.622;2023-03-04T04:40:25;99779.34;;;4.07;100.00
12203;BME280;6164;42.178;24.622;2023-03-04T04:42:52;99780.25;;;4.05;100.00
12203;BME280;6164;42.178;24.622;2023-03-04T04:45:18;99782.88;;;4.05;100.00
12203;BME280;6164;42.178;24.622;2023-03-04T04:47:46;99790.72;;;4.05;100.00
12203;BME280;6164;42.178;24.622;2023-03-04T04:50:12;99783.00;;;4.04;100.00
12203;BME280;6164;42.178;24.622;2023-03-04T04:52:39;99779.22;;;3.97;100.00
12203;BME280;6164;42.178;24.622;2023-03-04T04:55:06;99788.13;;;3.94;100.00
12203;BME280;6164;42.178;24.622;2023-03-04T04:57:32;99792.19;;;3.98;100.00
12203;BME280;6164;42.178;24.622;2023-03-04T04:59:59;99789.44;;;4.00;100.00
12203;BME280;6164;42.178;24.622;2023-03-04T05:02:26;99785.88;;;4.01;100.00
12203;BME280;6164;42.178;24.622;2023-03-04T05:04:53;99797.16;;;4.01;100.00
12203;BME280;6164;42.178;24.622;2023-03-04T05:07:20;99792.06;;;4.00;100.00
12203;BME280;6164;42.178;24.622;2023-03-04T05:09:46;99788.25;;;3.93;100.00
12203;BME280;6164;42.178;24.622;2023-03-04T05:12:13;99795.00;;;3.95;100.00
12203;BME280;6164;42.178;24.622;2023-03-04T05:14:39;99794.44;;;3.92;100.00
12203;BME280;6164;42.178;24.622;2023-03-04T05:17:06;99786.25;;;3.74;100.00
12203;BME280;6164;42.178;24.622;2023-03-04T05:19:32;99787.94;;;3.64;100.00
12203;BME280;6164;42.178;24.622;2023-03-04T05:22:00;99794.13;;;3.63;100.00
12203;BME280;6164;42.178;24.622;2023-03-04T05:24:28;99799.44;;;3.73;100.00
12203;BME280;6164;42.178;24.622;2023-03-04T05:26:55;99807.16;;;3.74;100.00
12203;BME280;6164;42.178;24.622;2023-03-04T05:29:21;99792.91;;;3.78;100.00
12203;BME280;6164;42.178;24.622;2023-03-04T05:31:48;99788.03;;;3.85;100.00
12203;BME280;6164;42.178;24.622;2023-03-04T05:34:14;99804.19;;;3.90;100.00
12203;BME280;6164;42.178;24.622;2023-03-04T05:36:41;99796.22;;;3.91;100.00
12203;BME280;6164;42.178;24.622;2023-03-04T05:39:08;99789.22;;;3.92;100.00
12203;BME280;6164;42.178;24.622;2023-03-04T05:41:35;99798.47;;;3.96;100.00
12203;BME280;6164;42.178;24.622;2023-03-04T05:44:01;99800.69;;;4.00;100.00
12203;BME280;6164;42.178;24.622;2023-03-04T05:46:28;99802.50;;;4.00;100.00
12203;BME280;6164;42.178;24.622;2023-03-04T05:48:54;99812.00;;;4.01;100.00
12203;BME280;6164;42.178;24.622;2023-03-04T05:51:21;99816.84;;;4.05;100.00
12203;BME280;6164;42.178;24.622;2023-03-04T05:53:48;99811.75;;;4.04;100.00
12203;BME280;6164;42.178;24.622;2023-03-04T05:56:16;99806.66;;;3.91;100.00
12203;BME280;6164;42.178;24.622;2023-03-04T05:58:43;99810.22;;;3.90;100.00
12203;BME280;6164;42.178;24.622;2023-03-04T06:01:11;99818.16;;;3.89;100.00
12203;BME280;6164;42.178;24.622;2023-03-04T06:03:38;99819.84;;;3.90;100.00
12203;BME280;6164;42.178;24.622;2023-03-04T06:06:05;99816.16;;;3.92;100.00
12203;BME280;6164;42.178;24.622;2023-03-04T06:08:31;99818.50;;;3.95;100.00
12203;BME280;6164;42.178;24.622;2023-03-04T06:10:58;99832.75;;;4.02;100.00
12203;BME280;6164;42.178;24.622;2023-03-04T06:13:26;99831.56;;;4.07;100.00
12203;BME280;6164;42.178;24.622;2023-03-04T06:15:52;99831.19;;;4.11;100.00
12203;BME280;6164;42.178;24.622;2023-03-04T06:18:19;99834.66;;;4.12;100.00
12203;BME280;6164;42.178;24.622;2023-03-04T06:20:46;99832.84;;;4.12;100.00
12203;BME280;6164;42.178;24.622;2023-03-04T06:23:12;99843.44;;;4.11;100.00
12203;BME280;6164;42.178;24.622;2023-03-04T06:25:39;99848.53;;;4.12;100.00
12203;BME280;6164;42.178;24.622;2023-03-04T06:28:05;99845.31;;;4.20;100.00
12203;BME280;6164;42.178;24.622;2023-03-04T06:30:33;99851.81;;;4.25;100.00
12203;BME280;6164;42.178;24.622;2023-03-04T06:33:00;99853.97;;;4.31;100.00
12203;BME280;6164;42.178;24.622;2023-03-04T06:35:26;99859.78;;;4.35;100.00
12203;BME280;6164;42.178;24.622;2023-03-04T06:37:53;99865.59;;;4.38;100.00
12203;BME280;6164;42.178;24.622;2023-03-04T06:40:19;99875.69;;;4.43;100.00
12203;BME280;6164;42.178;24.622;2023-03-04T06:42:46;99869.81;;;4.50;100.00
12203;BME280;6164;42.178;24.622;2023-03-04T06:45:12;99877.19;;;4.56;100.00
12203;BME280;6164;42.178;24.622;2023-03-04T06:47:40;99873.94;;;4.64;100.00
12203;BME280;6164;42.178;24.622;2023-03-04T06:50:07;99874.16;;;4.72;100.00
12203;BME280;6164;42.178;24.622;2023-03-04T06:52:36;99876.16;;;4.79;100.00
12203;BME280;6164;42.178;24.622;2023-03-04T06:55:02;99872.59;;;4.80;100.00
12203;BME280;6164;42.178;24.622;2023-03-04T06:57:29;99869.38;;;4.77;100.00
12203;BME280;6164;42.178;24.622;2023-03-04T06:59:55;99868.41;;;4.78;100.00
12203;BME280;6164;42.178;24.622;2023-03-04T07:02:22;99872.31;;;4.83;100.00
12203;BME280;6164;42.178;24.622;2023-03-04T07:04:50;99879.78;;;4.88;100.00
12203;BME280;6164;42.178;24.622;2023-03-04T07:07:16;99878.09;;;4.98;100.00
12203;BME280;6164;42.178;24.622;2023-03-04T07:09:43;99877.28;;;4.97;100.00
12203;BME280;6164;42.178;24.622;2023-03-04T07:12:09;99878.06;;;5.09;100.00
12203;BME280;6164;42.178;24.622;2023-03-04T07:14:36;99876.56;;;5.16;100.00
12203;BME280;6164;42.178;24.622;2023-03-04T07:17:02;99877.00;;;5.21;100.00
12203;BME280;6164;42.178;24.622;2023-03-04T07:19:29;99866.88;;;5.27;100.00
12203;BME280;6164;42.178;24.622;2023-03-04T07:21:57;99868.72;;;5.36;100.00
12203;BME280;6164;42.178;24.622;2023-03-04T07:24:23;99871.41;;;5.46;100.00
12203;BME280;6164;42.178;24.622;2023-03-04T07:26:49;99868.50;;;5.49;100.00
12203;BME280;6164;42.178;24.622;2023-03-04T07:29:19;99865.94;;;5.59;100.00
12203;BME280;6164;42.178;24.622;2023-03-04T07:31:45;99863.53;;;5.67;100.00
12203;BME280;6164;42.178;24.622;2023-03-04T07:34:12;99862.72;;;5.76;100.00
12203;BME280;6164;42.178;24.622;2023-03-04T07:36:39;99856.84;;;5.83;100.00
12203;BME280;6164;42.178;24.622;2023-03-04T07:39:07;99854.41;;;5.91;100.00
12203;BME280;6164;42.178;24.622;2023-03-04T07:41:35;99856.91;;;5.93;100.00
12203;BME280;6164;42.178;24.622;2023-03-04T07:44:02;99848.50;;;5.99;100.00
12203;BME280;6164;42.178;24.622;2023-03-04T07:46:29;99837.75;;;6.02;100.00
12203;BME280;6164;42.178;24.622;2023-03-04T07:48:55;99850.06;;;6.11;100.00
12203;BME280;6164;42.178;24.622;2023-03-04T07:51:22;99848.00;;;6.14;100.00
12203;BME280;6164;42.178;24.622;2023-03-04T07:53:50;99835.06;;;6.22;100.00
12203;BME280;6164;42.178;24.622;2023-03-04T07:56:20;99841.53;;;6.28;100.00
12203;BME280;6164;42.178;24.622;2023-03-04T07:58:47;99842.94;;;6.32;100.00
12203;BME280;6164;42.178;24.622;2023-03-04T08:01:14;99843.22;;;6.38;100.00
12203;BME280;6164;42.178;24.622;2023-03-04T08:03:41;99837.28;;;6.46;100.00
12203;BME280;6164;42.178;24.622;2023-03-04T08:06:09;99843.38;;;6.46;100.00
12203;BME280;6164;42.178;24.622;2023-03-04T08:08:36;99843.78;;;6.51;100.00
12203;BME280;6164;42.178;24.622;2023-03-04T08:11:03;99840.88;;;6.54;100.00
12203;BME280;6164;42.178;24.622;2023-03-04T08:13:31;99839.25;;;6.63;100.00
12203;BME280;6164;42.178;24.622;2023-03-04T08:15:58;99833.28;;;6.70;100.00
12203;BME280;6164;42.178;24.622;2023-03-04T08:18:24;99832.19;;;6.83;100.00
12203;BME280;6164;42.178;24.622;2023-03-04T08:20:51;99837.44;;;6.92;100.00
12203;BME280;6164;42.178;24.622;2023-03-04T08:23:18;99840.88;;;7.02;100.00
12203;BME280;6164;42.178;24.622;2023-03-04T08:25:44;99835.63;;;7.12;100.00
12203;BME280;6164;42.178;24.622;2023-03-04T08:28:11;99836.19;;;7.25;100.00
12203;BME280;6164;42.178;24.622;2023-03-04T08:30:39;99839.72;;;7.33;100.00
12203;BME280;6164;42.178;24.622;2023-03-04T08:33:06;99839.19;;;7.39;100.00
12203;BME280;6164;42.178;24.622;2023-03-04T08:35:38;99839.16;;;7.49;100.00
12203;BME280;6164;42.178;24.622;2023-03-04T08:38:05;99845.16;;;7.68;100.00
12203;BME280;6164;42.178;24.622;2023-03-04T08:40:31;99846.25;;;7.75;100.00
12203;BME280;6164;42.178;24.622;2023-03-04T08:42:58;99846.16;;;7.94;100.00
12203;BME280;6164;42.178;24.622;2023-03-04T08:45:24;99845.94;;;8.15;100.00
12203;BME280;6164;42.178;24.622;2023-03-04T08:47:52;99849.88;;;8.29;100.00
12203;BME280;6164;42.178;24.622;2023-03-04T08:50:19;99850.16;;;8.35;100.00
12203;BME280;6164;42.178;24.622;2023-03-04T08:52:45;99841.81;;;8.40;100.00
12203;BME280;6164;42.178;24.622;2023-03-04T08:55:12;99840.88;;;8.49;100.00
12203;BME280;6164;42.178;24.622;2023-03-04T08:57:38;99830.22;;;8.33;100.00
12203;BME280;6164;42.178;24.622;2023-03-04T09:00:05;99829.63;;;8.56;100.00
12203;BME280;6164;42.178;24.622;2023-03-04T09:02:32;99825.06;;;8.76;100.00
12203;BME280;6164;42.178;24.622;2023-03-04T09:05:00;99818.72;;;8.86;100.00
12203;BME280;6164;42.178;24.622;2023-03-04T09:07:26;99811.34;;;8.90;100.00
12203;BME280;6164;42.178;24.622;2023-03-04T09:09:53;99806.06;;;8.90;100.00
12203;BME280;6164;42.178;24.622;2023-03-04T09:12:20;99793.34;;;9.03;100.00
12203;BME280;6164;42.178;24.622;2023-03-04T09:14:46;99796.25;;;9.17;100.00
12203;BME280;6164;42.178;24.622;2023-03-04T09:17:13;99797.91;;;9.18;100.00
12203;BME280;6164;42.178;24.622;2023-03-04T09:19:39;99791.91;;;9.08;100.00
12203;BME280;6164;42.178;24.622;2023-03-04T09:22:07;99791.97;;;9.16;100.00
12203;BME280;6164;42.178;24.622;2023-03-04T09:24:34;99786.91;;;9.23;100.00
12203;BME280;6164;42.178;24.622;2023-03-04T09:27:00;99792.75;;;9.09;100.00
12203;BME280;6164;42.178;24.622;2023-03-04T09:29:27;99784.47;;;9.04;100.00
12203;BME280;6164;42.178;24.622;2023-03-04T09:31:53;99794.16;;;9.03;100.00
12203;BME280;6164;42.178;24.622;2023-03-04T09:34:20;99798.69;;;8.93;100.00
12203;BME280;6164;42.178;24.622;2023-03-04T09:36:46;99797.38;;;9.15;100.00
12203;BME280;6164;42.178;24.622;2023-03-04T09:39:14;99796.19;;;9.35;100.00
12203;BME280;6164;42.178;24.622;2023-03-04T09:41:41;99793.97;;;9.48;100.00
12203;BME280;6164;42.178;24.622;2023-03-04T09:44:16;99786.78;;;9.32;100.00
12203;BME280;6164;42.178;24.622;2023-03-04T09:46:44;99783.59;;;9.47;100.00
12203;BME280;6164;42.178;24.622;2023-03-04T09:49:11;99784.81;;;9.60;100.00
12203;BME280;6164;42.178;24.622;2023-03-04T09:51:50;99781.88;;;9.63;100.00
12203;BME280;6164;42.178;24.622;2023-03-04T09:54:24;99778.94;;;9.74;100.00
12203;BME280;6164;42.178;24.622;2023-03-04T09:56:54;99780.91;;;9.72;100.00
12203;BME280;6164;42.178;24.622;2023-03-04T09:59:23;99768.97;;;9.52;100.00
12203;BME280;6164;42.178;24.622;2023-03-04T10:01:51;99767.34;;;9.59;100.00
12203;BME280;6164;42.178;24.622;2023-03-04T10:04:21;99770.53;;;9.71;100.00
12203;BME280;6164;42.178;24.622;2023-03-04T10:06:51;99766.56;;;9.67;100.00
12203;BME280;6164;42.178;24.622;2023-03-04T10:09:18;99759.00;;;9.72;100.00
12203;BME280;6164;42.178;24.622;2023-03-04T10:11:50;99763.50;;;9.87;100.00
12203;BME280;6164;42.178;24.622;2023-03-04T10:14:29;99758.03;;;9.81;100.00
12203;BME280;6164;42.178;24.622;2023-03-04T10:16:58;99761.03;;;9.86;100.00
12203;BME280;6164;42.178;24.622;2023-03-04T10:19:29;99755.50;;;9.63;100.00
12203;BME280;6164;42.178;24.622;2023-03-04T10:21:59;99749.41;;;9.63;100.00
12203;BME280;6164;42.178;24.622;2023-03-04T10:24:26;99755.81;;;9.60;100.00
12203;BME280;6164;42.178;24.622;2023-03-04T10:26:55;99751.72;;;9.66;100.00
12203;BME280;6164;42.178;24.622;2023-03-04T10:29:23;99750.75;;;9.67;100.00
12203;BME280;6164;42.178;24.622;2023-03-04T10:31:50;99744.78;;;9.57;100.00
12203;BME280;6164;42.178;24.622;2023-03-04T10:34:19;99744.63;;;9.58;100.00
12203;BME280;6164;42.178;24.622;2023-03-04T10:36:48;99743.47;;;9.69;100.00
12203;BME280;6164;42.178;24.622;2023-03-04T10:39:20;99736.75;;;9.74;100.00
12203;BME280;6164;42.178;24.622;2023-03-04T10:41:52;99727.34;;;9.64;100.00
12203;BME280;6164;42.178;24.622;2023-03-04T10:44:21;99718.69;;;9.46;100.00
12203;BME280;6164;42.178;24.622;2023-03-04T10:46:48;99714.56;;;9.43;100.00
12203;BME280;6164;42.178;24.622;2023-03-04T10:49:15;99717.34;;;9.42;100.00
12203;BME280;6164;42.178;24.622;2023-03-04T10:51:43;99714.38;;;9.37;100.00
12203;BME280;6164;42.178;24.622;2023-03-04T10:54:15;99709.22;;;9.27;100.00
12203;BME280;6164;42.178;24.622;2023-03-04T10:56:51;99713.19;;;9.31;100.00
12203;BME280;6164;42.178;24.622;2023-03-04T10:59:32;99699.91;;;9.41;100.00
12203;BME280;6164;42.178;24.622;2023-03-04T11:02:00;99701.28;;;9.61;100.00
12203;BME280;6164;42.178;24.622;2023-03-04T11:04:31;99697.69;;;9.62;100.00
12203;BME280;6164;42.178;24.622;2023-03-04T11:06:57;99684.19;;;9.73;100.00
12203;BME280;6164;42.178;24.622;2023-03-04T11:09:24;99683.53;;;9.71;100.00
12203;BME280;6164;42.178;24.622;2023-03-04T11:11:51;99674.50;;;9.73;100.00
12203;BME280;6164;42.178;24.622;2023-03-04T11:14:20;99659.97;;;9.69;100.00
12203;BME280;6164;42.178;24.622;2023-03-04T11:16:53;99658.53;;;9.83;100.00
12203;BME280;6164;42.178;24.622;2023-03-04T11:19:20;99658.53;;;9.91;100.00
12203;BME280;6164;42.178;24.622;2023-03-04T11:21:48;99646.97;;;9.92;100.00
12203;BME280;6164;42.178;24.622;2023-03-04T11:24:18;99650.03;;;10.13;100.00
12203;BME280;6164;42.178;24.622;2023-03-04T11:26:50;99640.59;;;10.02;100.00
12203;BME280;6164;42.178;24.622;2023-03-04T11:29:19;99642.03;;;9.97;100.00
12203;BME280;6164;42.178;24.622;2023-03-04T11:31:48;99645.00;;;9.94;100.00
12203;BME280;6164;42.178;24.622;2023-03-04T11:34:19;99639.56;;;9.95;100.00
12203;BME280;6164;42.178;24.622;2023-03-04T11:36:50;99633.69;;;10.09;100.00
12203;BME280;6164;42.178;24.622;2023-03-04T11:39:23;99630.53;;;9.90;100.00
12203;BME280;6164;42.178;24.622;2023-03-04T11:41:53;99632.16;;;9.99;100.00
12203;BME280;6164;42.178;24.622;2023-03-04T11:44:22;99627.22;;;9.80;100.00
12203;BME280;6164;42.178;24.622;2023-03-04T11:46:53;99619.47;;;9.70;100.00
12203;BME280;6164;42.178;24.622;2023-03-04T11:49:32;99624.84;;;9.61;100.00
12203;BME280;6164;42.178;24.622;2023-03-04T11:52:08;99619.06;;;9.57;100.00
12203;BME280;6164;42.178;24.622;2023-03-04T11:54:42;99620.56;;;9.60;100.00
12203;BME280;6164;42.178;24.622;2023-03-04T11:57:16;99621.59;;;9.67;100.00
12203;BME280;6164;42.178;24.622;2023-03-04T11:59:53;99621.59;;;9.67;100.00
12203;BME280;6164;42.178;24.622;2023-03-04T12:02:22;99619.75;;;9.67;100.00
12203;BME280;6164;42.178;24.622;2023-03-04T12:05:03;99623.56;;;9.73;100.00
12203;BME280;6164;42.178;24.622;2023-03-04T12:07:42;99611.41;;;9.88;100.00
12203;BME280;6164;42.178;24.622;2023-03-04T12:10:13;99604.97;;;9.98;100.00
12203;BME280;6164;42.178;24.622;2023-03-04T12:12:50;99604.69;;;10.17;100.00
12203;BME280;6164;42.178;24.622;2023-03-04T12:15:24;99602.03;;;10.33;100.00
12203;BME280;6164;42.178;24.622;2023-03-04T12:17:59;99603.97;;;10.63;100.00
12203;BME280;6164;42.178;24.622;2023-03-04T12:20:37;99604.94;;;10.79;100.00
12203;BME280;6164;42.178;24.622;2023-03-04T12:23:09;99594.47;;;10.93;100.00
12203;BME280;6164;42.178;24.622;2023-03-04T12:25:43;99598.25;;;11.07;100.00
12203;BME280;6164;42.178;24.622;2023-03-04T12:28:20;99588.91;;;11.19;100.00
12203;BME280;6164;42.178;24.622;2023-03-04T12:30:52;99577.38;;;11.20;100.00
12203;BME280;6164;42.178;24.622;2023-03-04T12:33:26;99581.00;;;11.19;100.00
12203;BME280;6164;42.178;24.622;2023-03-04T12:36:01;99578.66;;;11.24;100.00
12203;BME280;6164;42.178;24.622;2023-03-04T12:38:34;99578.53;;;11.48;100.00
12203;BME280;6164;42.178;24.622;2023-03-04T12:41:12;99573.03;;;11.57;100.00
12203;BME280;6164;42.178;24.622;2023-03-04T12:43:46;99574.25;;;11.77;100.00
12203;BME280;6164;42.178;24.622;2023-03-04T12:46:21;99565.31;;;11.78;100.00
12203;BME280;6164;42.178;24.622;2023-03-04T12:48:54;99561.78;;;11.63;100.00
12203;BME280;6164;42.178;24.622;2023-03-04T12:51:29;99559.41;;;11.68;100.00
12203;BME280;6164;42.178;24.622;2023-03-04T12:54:06;99556.25;;;11.73;100.00
12203;BME280;6164;42.178;24.622;2023-03-04T12:56:36;99547.00;;;11.91;100.00
12203;BME280;6164;42.178;24.622;2023-03-04T12:59:04;99546.56;;;11.65;100.00
12203;BME280;6164;42.178;24.622;2023-03-04T13:01:32;99548.09;;;11.52;100.00
12203;BME280;6164;42.178;24.622;2023-03-04T13:04:02;99548.31;;;11.73;100.00
12203;BME280;6164;42.178;24.622;2023-03-04T13:06:35;99538.44;;;11.89;100.00